sensor_id;sensor_type;location;lat;lon;timestamp;pressure;altitude;pressure_sealevel;temperature;humidity
75640;BME280;64233;51.486;6.332;2023-07-29T00:00:17;100529.56;;;17.34;100.00
75640;BME280;64233;51.486;6.332;2023-07-29T00:02:44;100524.22;;;17.29;100.00
75640;BME280;64233;51.486;6.332;2023-07-29T00:05:10;100518.63;;;17.26;100.00
75640;BME280;64233;51.486;6.332;2023-07-29T00:07:35;100511.88;;;17.23;100.00
75640;BME280;64233;51.486;6.332;2023-07-29T00:10:00;100513.91;;;17.31;100.00
75640;BME280;64233;51.486;6.332;2023-07-29T00:12:26;100524.34;;;17.38;100.00
75640;BME280;64233;51.486;6.332;2023-07-29T00:14:51;100513.97;;;17.40;100.00
75640;BME280;64233;51.486;6.332;2023-07-29T00:17:16;100509.56;;;17.44;100.00
75640;BME280;64233;51.486;6.332;2023-07-29T00:19:41;100513.59;;;17.47;100.00
75640;BME280;64233;51.486;6.332;2023-07-29T00:22:07;100512.97;;;17.50;100.00
75640;BME280;64233;51.486;6.332;2023-07-29T00:24:33;100508.66;;;17.49;100.00
75640;BME280;64233;51.486;6.332;2023-07-29T00:26:58;100509.03;;;17.42;100.00
75640;BME280;64233;51.486;6.332;2023-07-29T00:29:24;100507.03;;;17.48;100.00
75640;BME280;64233;51.486;6.332;2023-07-29T00:31:49;100509.88;;;17.43;100.00
75640;BME280;64233;51.486;6.332;2023-07-29T00:34:14;100507.94;;;17.43;100.00
75640;BME280;64233;51.486;6.332;2023-07-29T00:36:44;100506.13;;;17.52;100.00
75640;BME280;64233;51.486;6.332;2023-07-29T00:39:09;100505.53;;;17.55;100.00
75640;BME280;64233;51.486;6.332;2023-07-29T00:41:35;100508.25;;;17.55;100.00
75640;BME280;64233;51.486;6.332;2023-07-29T00:44:00;100516.88;;;17.58;100.00
75640;BME280;64233;51.486;6.332;2023-07-29T00:46:27;100508.72;;;17.58;100.00
75640;BME280;64233;51.486;6.332;2023-07-29T00:48:53;100509.09;;;17.65;100.00
75640;BME280;64233;51.486;6.332;2023-07-29T00:51:18;100503.88;;;17.68;100.00
75640;BME280;64233;51.486;6.332;2023-07-29T00:53:43;100504.00;;;17.63;100.00
75640;BME280;64233;51.486;6.332;2023-07-29T00:56:09;100504.69;;;17.69;100.00
75640;BME280;64233;51.486;6.332;2023-07-29T00:58:34;100503.88;;;17.68;100.00
75640;BME280;64233;51.486;6.332;2023-07-29T01:00:59;100500.47;;;17.77;100.00
75640;BME280;64233;51.486;6.332;2023-07-29T01:03:25;100493.94;;;17.78;100.00
75640;BME280;64233;51.486;6.332;2023-07-29T01:06:01;100482.63;;;17.84;100.00
75640;BME280;64233;51.486;6.332;2023-07-29T01:08:52;100479.59;;;17.86;100.00
75640;BME280;64233;51.486;6.332;2023-07-29T01:13:58;100472.38;;;17.81;100.00
75640;BME280;64233;51.486;6.332;2023-07-29T01:16:42;100476.41;;;17.84;100.00
75640;BME280;64233;51.486;6.332;2023-07-29T01:19:20;100473.84;;;17.87;100.00
75640;BME280;64233;51.486;6.332;2023-07-29T01:21:49;100482.44;;;17.81;100.00
75640;BME280;64233;51.486;6.332;2023-07-29T01:24:14;100491.91;;;17.83;100.00
75640;BME280;64233;51.486;6.332;2023-07-29T01:26:40;100486.75;;;17.82;100.00
75640;BME280;64233;51.486;6.332;2023-07-29T01:29:05;100488.88;;;17.85;100.00
75640;BME280;64233;51.486;6.332;2023-07-29T01:31:33;100492.59;;;17.89;100.00
75640;BME280;64233;51.486;6.332;2023-07-29T01:34:26;100489.88;;;17.89;100.00
75640;BME280;64233;51.486;6.332;2023-07-29T01:36:54;100480.00;;;17.93;100.00
75640;BME280;64233;51.486;6.332;2023-07-29T01:39:23;100469.53;;;18.00;100.00
75640;BME280;64233;51.486;6.332;2023-07-29T01:41:49;100475.75;;;18.01;100.00
75640;BME280;64233;51.486;6.332;2023-07-29T01:44:16;100478.59;;;17.96;100.00
75640;BME280;64233;51.486;6.332;2023-07-29T01:46:44;100473.00;;;17.92;100.00
75640;BME280;64233;51.486;6.332;2023-07-29T01:49:09;100477.69;;;18.00;100.00
75640;BME280;64233;51.486;6.332;2023-07-29T01:51:34;100469.34;;;17.97;100.00
75640;BME280;64233;51.486;6.332;2023-07-29T01:53:59;100462.81;;;17.98;100.00
75640;BME280;64233;51.486;6.332;2023-07-29T01:56:25;100461.41;;;18.00;100.00
75640;BME280;64233;51.486;6.332;2023-07-29T01:58:50;100454.22;;;18.04;100.00
75640;BME280;64233;51.486;6.332;2023-07-29T02:01:15;100456.34;;;18.08;100.00
75640;BME280;64233;51.486;6.332;2023-07-29T02:03:41;100449.59;;;18.05;100.00
75640;BME280;64233;51.486;6.332;2023-07-29T02:06:06;100456.66;;;18.06;100.00
75640;BME280;64233;51.486;6.332;2023-07-29T02:08:31;100457.53;;;18.01;100.00
75640;BME280;64233;51.486;6.332;2023-07-29T02:10:56;100461.41;;;18.00;100.00
75640;BME280;64233;51.486;6.332;2023-07-29T02:13:22;100457.53;;;18.01;100.00
75640;BME280;64233;51.486;6.332;2023-07-29T02:15:47;100450.91;;;18.08;100.00
75640;BME280;64233;51.486;6.332;2023-07-29T02:18:12;100460.50;;;18.14;100.00
75640;BME280;64233;51.486;6.332;2023-07-29T02:20:38;100453.63;;;18.08;100.00
75640;BME280;64233;51.486;6.332;2023-07-29T02:23:03;100458.22;;;18.07;100.00
75640;BME280;64233;51.486;6.332;2023-07-29T02:25:28;100458.06;;;18.03;100.00
75640;BME280;64233;51.486;6.332;2023-07-29T02:27:54;100455.81;;;18.05;100.00
75640;BME280;64233;51.486;6.332;2023-07-29T02:30:20;100454.41;;;18.08;100.00
75640;BME280;64233;51.486;6.332;2023-07-29T02:32:46;100456.50;;;18.11;100.00
75640;BME280;64233;51.486;6.332;2023-07-29T02:35:12;100460.94;;;18.07;100.00
75640;BME280;64233;51.486;6.332;2023-07-29T02:37:37;100460.50;;;18.14;100.00
75640;BME280;64233;51.486;6.332;2023-07-29T02:40:02;100460.03;;;18.12;100.00
75640;BME280;64233;51.486;6.332;2023-07-29T02:42:28;100466.38;;;18.07;100.00
75640;BME280;64233;51.486;6.332;2023-07-29T02:44:54;100474.53;;;18.07;100.00
75640;BME280;64233;51.486;6.332;2023-07-29T02:47:19;100466.88;;;18.09;100.00
75640;BME280;64233;51.486;6.332;2023-07-29T02:49:44;100465.16;;;18.13;100.00
75640;BME280;64233;51.486;6.332;2023-07-29T02:52:10;100466.38;;;18.07;100.00
75640;BME280;64233;51.486;6.332;2023-07-29T02:54:35;100463.34;;;18.09;100.00
75640;BME280;64233;51.486;6.332;2023-07-29T02:57:00;100452.38;;;18.14;100.00
75640;BME280;64233;51.486;6.332;2023-07-29T02:59:26;100460.78;;;18.03;100.00
75640;BME280;64233;51.486;6.332;2023-07-29T03:01:52;100448.97;;;18.08;100.00
75640;BME280;64233;51.486;6.332;2023-07-29T03:04:18;100434.91;;;18.06;100.00
75640;BME280;64233;51.486;6.332;2023-07-29T03:06:43;100450.03;;;17.98;100.00
75640;BME280;64233;51.486;6.332;2023-07-29T03:09:09;100444.09;;;17.96;100.00
75640;BME280;64233;51.486;6.332;2023-07-29T03:11:34;100445.53;;;17.94;100.00
75640;BME280;64233;51.486;6.332;2023-07-29T03:14:00;100444.50;;;17.89;100.00
75640;BME280;64233;51.486;6.332;2023-07-29T03:16:25;100447.16;;;17.81;100.00
75640;BME280;64233;51.486;6.332;2023-07-29T03:18:51;100434.69;;;17.80;100.00
75640;BME280;64233;51.486;6.332;2023-07-29T03:21:16;100443.81;;;17.84;100.00
75640;BME280;64233;51.486;6.332;2023-07-29T03:23:41;100439.63;;;17.78;100.00
75640;BME280;64233;51.486;6.332;2023-07-29T03:26:07;100437.19;;;17.76;100.00
75640;BME280;64233;51.486;6.332;2023-07-29T03:28:40;100434.94;;;17.69;100.00
75640;BME280;64233;51.486;6.332;2023-07-29T03:31:06;100429.44;;;17.61;100.00
75640;BME280;64233;51.486;6.332;2023-07-29T03:33:31;100430.41;;;17.65;100.00
75640;BME280;64233;51.486;6.332;2023-07-29T03:35:56;100432.25;;;17.55;100.00
75640;BME280;64233;51.486;6.332;2023-07-29T03:38:22;100441.41;;;17.60;100.00
75640;BME280;64233;51.486;6.332;2023-07-29T03:40:47;100442.59;;;17.53;100.00
75640;BME280;64233;51.486;6.332;2023-07-29T03:43:13;100434.59;;;17.48;100.00
75640;BME280;64233;51.486;6.332;2023-07-29T03:45:41;100423.16;;;17.37;100.00
75640;BME280;64233;51.486;6.332;2023-07-29T03:48:06;100427.88;;;17.32;100.00
75640;BME280;64233;51.486;6.332;2023-07-29T03:50:33;100417.56;;;17.34;100.00
75640;BME280;64233;51.486;6.332;2023-07-29T03:52:58;100402.41;;;17.19;100.00
75640;BME280;64233;51.486;6.332;2023-07-29T03:55:24;100405.91;;;17.19;100.00
75640;BME280;64233;51.486;6.332;2023-07-29T03:57:49;100411.31;;;17.19;100.00
75640;BME280;64233;51.486;6.332;2023-07-29T04:00:14;100417.19;;;17.13;100.00
75640;BME280;64233;51.486;6.332;2023-07-29T04:02:41;100416.97;;;17.09;100.00
75640;BME280;64233;51.486;6.332;2023-07-29T04:05:07;100424.81;;;17.11;100.00
75640;BME280;64233;51.486;6.332;2023-07-29T04:07:36;100426.50;;;17.07;100.00
75640;BME280;64233;51.486;6.332;2023-07-29T04:10:02;100437.34;;;17.07;100.00
75640;BME280;64233;51.486;6.332;2023-07-29T04:12:28;100436.88;;;17.04;100.00
75640;BME280;64233;51.486;6.332;2023-07-29T04:14:53;100436.25;;;16.94;100.00
75640;BME280;64233;51.486;6.332;2023-07-29T04:17:18;100442.19;;;16.96;100.00
75640;BME280;64233;51.486;6.332;2023-07-29T04:19:44;100445.00;;;16.91;100.00
75640;BME280;64233;51.486;6.332;2023-07-29T04:22:09;100450.34;;;16.96;100.00
75640;BME280;64233;51.486;6.332;2023-07-29T04:24:35;100459.13;;;16.87;100.00
75640;BME280;64233;51.486;6.332;2023-07-29T04:27:00;100461.84;;;16.87;100.00
75640;BME280;64233;51.486;6.332;2023-07-29T04:29:25;100464.28;;;16.89;100.00
75640;BME280;64233;51.486;6.332;2023-07-29T04:31:51;100473.59;;;16.83;100.00
75640;BME280;64233;51.486;6.332;2023-07-29T04:34:19;100463.63;;;16.78;100.00
75640;BME280;64233;51.486;6.332;2023-07-29T04:36:45;100460.53;;;16.85;100.00
75640;BME280;64233;51.486;6.332;2023-07-29T04:39:10;100445.38;;;16.84;100.00
75640;BME280;64233;51.486;6.332;2023-07-29T04:41:36;100426.69;;;16.82;100.00
75640;BME280;64233;51.486;6.332;2023-07-29T04:44:01;100415.28;;;16.85;100.00
75640;BME280;64233;51.486;6.332;2023-07-29T04:46:26;100416.28;;;16.76;100.00
75640;BME280;64233;51.486;6.332;2023-07-29T04:48:52;100421.38;;;16.63;100.00
75640;BME280;64233;51.486;6.332;2023-07-29T04:51:17;100430.22;;;16.69;100.00
75640;BME280;64233;51.486;6.332;2023-07-29T04:53:42;100427.81;;;16.67;100.00
75640;BME280;64233;51.486;6.332;2023-07-29T04:56:07;100430.00;;;16.65;100.00
75640;BME280;64233;51.486;6.332;2023-07-29T04:58:33;100435.13;;;16.67;100.00
75640;BME280;64233;51.486;6.332;2023-07-29T05:01:01;100447.38;;;16.64;100.00
75640;BME280;64233;51.486;6.332;2023-07-29T05:03:26;100451.50;;;16.62;100.00
75640;BME280;64233;51.486;6.332;2023-07-29T05:05:52;100469.81;;;16.51;100.00
75640;BME280;64233;51.486;6.332;2023-07-29T05:08:18;100480.38;;;16.52;100.00
75640;BME280;64233;51.486;6.332;2023-07-29T05:10:44;100486.78;;;16.57;100.00
75640;BME280;64233;51.486;6.332;2023-07-29T05:13:09;100493.94;;;16.66;100.00
75640;BME280;64233;51.486;6.332;2023-07-29T05:15:34;100477.69;;;16.66;100.00
75640;BME280;64233;51.486;6.332;2023-07-29T05:18:16;100472.88;;;16.63;100.00
75640;BME280;64233;51.486;6.332;2023-07-29T05:20:42;100475.97;;;16.70;100.00
75640;BME280;64233;51.486;6.332;2023-07-29T05:23:07;100480.91;;;16.68;100.00
75640;BME280;64233;51.486;6.332;2023-07-29T05:25:32;100468.66;;;16.71;100.00
75640;BME280;64233;51.486;6.332;2023-07-29T05:28:00;100458.63;;;16.72;100.00
75640;BME280;64233;51.486;6.332;2023-07-29T05:30:25;100467.56;;;16.72;100.00
75640;BME280;64233;51.486;6.332;2023-07-29T05:32:52;100474.47;;;16.78;100.00
75640;BME280;64233;51.486;6.332;2023-07-29T05:35:17;100483.22;;;16.75;100.00
75640;BME280;64233;51.486;6.332;2023-07-29T05:37:43;100483.63;;;16.82;100.00
75640;BME280;64233;51.486;6.332;2023-07-29T05:40:08;100489.03;;;16.82;100.00
75640;BME280;64233;51.486;6.332;2023-07-29T05:42:34;100494.56;;;16.77;100.00
75640;BME280;64233;51.486;6.332;2023-07-29T05:44:59;100489.66;;;16.79;100.00
75640;BME280;64233;51.486;6.332;2023-07-29T05:47:25;100494.09;;;16.89;100.00
75640;BME280;64233;51.486;6.332;2023-07-29T05:49:50;100494.38;;;16.87;100.00
75640;BME280;64233;51.486;6.332;2023-07-29T05:52:16;100496.50;;;16.91;100.00
75640;BME280;64233;51.486;6.332;2023-07-29T05:54:41;100495.47;;;16.86;100.00
75640;BME280;64233;51.486;6.332;2023-07-29T05:57:09;100498.13;;;16.92;100.00
75640;BME280;64233;51.486;6.332;2023-07-29T05:59:34;100503.16;;;16.98;100.00
75640;BME280;64233;51.486;6.332;2023-07-29T06:02:00;100499.53;;;17.03;100.00
75640;BME280;64233;51.486;6.332;2023-07-29T06:04:25;100491.72;;;17.01;100.00
75640;BME280;64233;51.486;6.332;2023-07-29T06:06:50;100495.50;;;17.00;100.00
75640;BME280;64233;51.486;6.332;2023-07-29T06:09:16;100487.78;;;16.94;100.00
75640;BME280;64233;51.486;6.332;2023-07-29T06:11:41;100489.69;;;16.93;100.00
75640;BME280;64233;51.486;6.332;2023-07-29T06:14:09;100487.06;;;16.88;100.00
75640;BME280;64233;51.486;6.332;2023-07-29T06:16:35;100490.00;;;16.92;100.00
75640;BME280;64233;51.486;6.332;2023-07-29T06:19:00;100479.34;;;16.95;100.00
75640;BME280;64233;51.486;6.332;2023-07-29T06:21:25;100486.25;;;16.87;100.00
75640;BME280;64233;51.486;6.332;2023-07-29T06:23:50;100479.44;;;16.90;100.00
75640;BME280;64233;51.486;6.332;2023-07-29T06:26:16;100474.72;;;16.96;100.00
75640;BME280;64233;51.486;6.332;2023-07-29T06:28:41;100478.06;;;16.93;100.00
75640;BME280;64233;51.486;6.332;2023-07-29T06:31:06;100486.47;;;17.19;100.00
75640;BME280;64233;51.486;6.332;2023-07-29T06:33:32;100486.38;;;17.24;100.00
75640;BME280;64233;51.486;6.332;2023-07-29T06:35:57;100482.81;;;17.51;100.00
75640;BME280;64233;51.486;6.332;2023-07-29T06:38:22;100487.75;;;17.86;100.00
75640;BME280;64233;51.486;6.332;2023-07-29T06:40:48;100484.28;;;18.08;100.00
75640;BME280;64233;51.486;6.332;2023-07-29T06:43:14;100484.47;;;18.12;100.00
75640;BME280;64233;51.486;6.332;2023-07-29T06:45:39;100479.63;;;18.09;100.00
75640;BME280;64233;51.486;6.332;2023-07-29T06:48:04;100488.41;;;18.05;100.00
75640;BME280;64233;51.486;6.332;2023-07-29T06:50:30;100483.22;;;18.18;100.00
75640;BME280;64233;51.486;6.332;2023-07-29T06:52:55;100483.72;;;18.20;100.00
75640;BME280;64233;51.486;6.332;2023-07-29T06:55:20;100485.59;;;18.11;100.00
75640;BME280;64233;51.486;6.332;2023-07-29T06:57:46;100481.13;;;18.15;100.00
75640;BME280;64233;51.486;6.332;2023-07-29T07:00:11;100489.44;;;17.96;100.00
75640;BME280;64233;51.486;6.332;2023-07-29T07:02:36;100490.16;;;17.87;100.00
75640;BME280;64233;51.486;6.332;2023-07-29T07:05:01;100495.47;;;18.06;100.00
75640;BME280;64233;51.486;6.332;2023-07-29T07:07:27;100484.34;;;18.17;100.00
75640;BME280;64233;51.486;6.332;2023-07-29T07:09:52;100490.34;;;18.59;100.00
75640;BME280;64233;51.486;6.332;2023-07-29T07:12:17;100491.59;;;18.84;100.00
75640;BME280;64233;51.486;6.332;2023-07-29T07:14:42;100487.66;;;18.68;100.00
75640;BME280;64233;51.486;6.332;2023-07-29T07:17:08;100488.94;;;18.62;100.00
75640;BME280;64233;51.486;6.332;2023-07-29T07:19:33;100491.72;;;18.79;100.00
75640;BME280;64233;51.486;6.332;2023-07-29T07:21:58;100492.34;;;18.76;100.00
75640;BME280;64233;51.486;6.332;2023-07-29T07:24:24;100494.78;;;18.86;100.00
75640;BME280;64233;51.486;6.332;2023-07-29T07:26:49;100486.69;;;18.95;100.00
75640;BME280;64233;51.486;6.332;2023-07-29T07:29:14;100493.16;;;18.76;100.00
75640;BME280;64233;51.486;6.332;2023-07-29T07:31:40;100492.78;;;18.38;100.00
75640;BME280;64233;51.486;6.332;2023-07-29T07:34:05;100496.59;;;18.37;100.00
75640;BME280;64233;51.486;6.332;2023-07-29T07:36:30;100499.97;;;18.65;100.00
75640;BME280;64233;51.486;6.332;2023-07-29T07:38:56;100498.03;;;18.88;100.00
75640;BME280;64233;51.486;6.332;2023-07-29T07:41:21;100501.28;;;19.08;100.00
75640;BME280;64233;51.486;6.332;2023-07-29T07:43:47;100507.63;;;19.35;100.00
75640;BME280;64233;51.486;6.332;2023-07-29T07:46:12;100513.25;;;19.47;100.00
75640;BME280;64233;51.486;6.332;2023-07-29T07:48:38;100502.81;;;19.40;100.00
75640;BME280;64233;51.486;6.332;2023-07-29T07:51:12;100499.00;;;19.50;100.00
75640;BME280;64233;51.486;6.332;2023-07-29T07:53:38;100505.41;;;19.46;100.00
75640;BME280;64233;51.486;6.332;2023-07-29T07:56:03;100494.84;;;19.53;100.00
75640;BME280;64233;51.486;6.332;2023-07-29T07:58:29;100497.28;;;19.72;100.00
75640;BME280;64233;51.486;6.332;2023-07-29T08:01:04;100497.13;;;19.86;100.00
75640;BME280;64233;51.486;6.332;2023-07-29T08:03:29;100492.97;;;19.88;100.00
75640;BME280;64233;51.486;6.332;2023-07-29T08:05:55;100496.19;;;19.99;100.00
75640;BME280;64233;51.486;6.332;2023-07-29T08:08:20;100503.19;;;20.35;100.00
75640;BME280;64233;51.486;6.332;2023-07-29T08:10:45;100501.44;;;20.30;100.00
75640;BME280;64233;51.486;6.332;2023-07-29T08:13:11;100507.34;;;20.50;100.00
75640;BME280;64233;51.486;6.332;2023-07-29T08:15:36;100498.03;;;20.69;100.00
75640;BME280;64233;51.486;6.332;2023-07-29T08:18:01;100489.91;;;20.25;100.00
75640;BME280;64233;51.486;6.332;2023-07-29T08:20:26;100503.69;;;20.37;100.00
75640;BME280;64233;51.486;6.332;2023-07-29T08:22:52;100498.53;;;20.44;100.00
75640;BME280;64233;51.486;6.332;2023-07-29T08:25:17;100499.69;;;20.26;100.00
75640;BME280;64233;51.486;6.332;2023-07-29T08:27:42;100499.84;;;20.21;100.00
75640;BME280;64233;51.486;6.332;2023-07-29T08:30:08;100494.91;;;19.97;100.00
75640;BME280;64233;51.486;6.332;2023-07-29T08:32:33;100497.44;;;19.75;100.00
75640;BME280;64233;51.486;6.332;2023-07-29T08:34:59;100505.84;;;19.30;100.00
75640;BME280;64233;51.486;6.332;2023-07-29T08:37:24;100516.44;;;19.40;100.00
75640;BME280;64233;51.486;6.332;2023-07-29T08:39:49;100516.00;;;19.56;100.00
75640;BME280;64233;51.486;6.332;2023-07-29T08:42:16;100511.16;;;19.44;100.00
75640;BME280;64233;51.486;6.332;2023-07-29T08:44:43;100516.81;;;19.65;100.00
75640;BME280;64233;51.486;6.332;2023-07-29T08:47:09;100527.91;;;19.86;100.00
75640;BME280;64233;51.486;6.332;2023-07-29T08:49:36;100515.28;;;19.90;100.00
75640;BME280;64233;51.486;6.332;2023-07-29T08:52:03;100526.88;;;19.65;100.00
75640;BME280;64233;51.486;6.332;2023-07-29T08:54:29;100526.22;;;19.50;100.00
75640;BME280;64233;51.486;6.332;2023-07-29T08:56:54;100528.63;;;19.43;100.00
75640;BME280;64233;51.486;6.332;2023-07-29T08:59:20;100534.59;;;19.71;100.00
75640;BME280;64233;51.486;6.332;2023-07-29T09:01:46;100535.25;;;19.77;100.00
75640;BME280;64233;51.486;6.332;2023-07-29T09:04:12;100539.13;;;20.02;100.00
75640;BME280;64233;51.486;6.332;2023-07-29T09:06:39;100534.78;;;20.10;100.00
75640;BME280;64233;51.486;6.332;2023-07-29T09:09:04;100534.00;;;20.09;100.00
75640;BME280;64233;51.486;6.332;2023-07-29T09:11:30;100534.63;;;19.89;100.00
75640;BME280;64233;51.486;6.332;2023-07-29T09:13:56;100536.06;;;20.12;100.00
75640;BME280;64233;51.486;6.332;2023-07-29T09:16:22;100529.16;;;20.33;100.00
75640;BME280;64233;51.486;6.332;2023-07-29T09:18:48;100537.94;;;20.64;100.00
75640;BME280;64233;51.486;6.332;2023-07-29T09:21:22;100534.22;;;20.78;100.00
75640;BME280;64233;51.486;6.332;2023-07-29T09:23:50;100528.81;;;20.69;100.00
75640;BME280;64233;51.486;6.332;2023-07-29T09:26:22;100533.94;;;20.71;100.00
75640;BME280;64233;51.486;6.332;2023-07-29T09:28:54;100528.06;;;20.25;100.00
75640;BME280;64233;51.486;6.332;2023-07-29T09:31:22;100528.22;;;20.11;100.00
75640;BME280;64233;51.486;6.332;2023-07-29T09:33:47;100517.00;;;20.12;100.00
75640;BME280;64233;51.486;6.332;2023-07-29T09:36:13;100516.84;;;20.18;100.00
75640;BME280;64233;51.486;6.332;2023-07-29T09:38:38;100502.28;;;20.05;100.00
75640;BME280;64233;51.486;6.332;2023-07-29T09:41:25;100508.19;;;20.24;100.00
75640;BME280;64233;51.486;6.332;2023-07-29T09:44:17;100504.00;;;20.44;100.00
75640;BME280;64233;51.486;6.332;2023-07-29T09:46:59;100508.72;;;20.65;100.00
75640;BME280;64233;51.486;6.332;2023-07-29T09:49:25;100501.56;;;20.99;100.00
75640;BME280;64233;51.486;6.332;2023-07-29T09:51:50;100498.38;;;20.97;100.00
75640;BME280;64233;51.486;6.332;2023-07-29T09:54:16;100499.06;;;20.94;100.00
75640;BME280;64233;51.486;6.332;2023-07-29T09:56:42;100483.53;;;20.86;100.00
75640;BME280;64233;51.486;6.332;2023-07-29T09:59:10;100480.13;;;20.89;100.00
75640;BME280;64233;51.486;6.332;2023-07-29T10:01:36;100489.66;;;21.12;100.00
75640;BME280;64233;51.486;6.332;2023-07-29T10:04:04;100489.09;;;21.58;100.00
75640;BME280;64233;51.486;6.332;2023-07-29T10:06:29;100493.44;;;21.50;100.00
75640;BME280;64233;51.486;6.332;2023-07-29T10:08:55;100492.88;;;21.65;100.00
75640;BME280;64233;51.486;6.332;2023-07-29T10:11:21;100494.00;;;21.86;100.00
75640;BME280;64233;51.486;6.332;2023-07-29T10:13:48;100486.13;;;21.84;100.00
75640;BME280;64233;51.486;6.332;2023-07-29T10:16:13;100488.28;;;21.78;100.00
75640;BME280;64233;51.486;6.332;2023-07-29T10:18:40;100491.69;;;21.75;100.00
75640;BME280;64233;51.486;6.332;2023-07-29T10:21:07;100485.75;;;21.43;100.00
75640;BME280;64233;51.486;6.332;2023-07-29T10:23:42;100487.25;;;21.41;100.00
75640;BME280;64233;51.486;6.332;2023-07-29T10:26:10;100483.47;;;21.24;100.00
75640;BME280;64233;51.486;6.332;2023-07-29T10:28:39;100491.66;;;20.94;100.00
75640;BME280;64233;51.486;6.332;2023-07-29T10:31:06;100489.38;;;21.26;100.00
75640;BME280;64233;51.486;6.332;2023-07-29T10:33:32;100490.06;;;21.53;100.00
75640;BME280;64233;51.486;6.332;2023-07-29T10:35:59;100492.75;;;21.62;100.00
75640;BME280;64233;51.486;6.332;2023-07-29T10:38:25;100483.28;;;22.01;100.00
75640;BME280;64233;51.486;6.332;2023-07-29T10:40:55;100495.50;;;21.53;100.00
75640;BME280;64233;51.486;6.332;2023-07-29T10:43:25;100484.75;;;21.78;100.00
75640;BME280;64233;51.486;6.332;2023-07-29T10:45:52;100493.63;;;21.75;100.00
75640;BME280;64233;51.486;6.332;2023-07-29T10:53:52;100492.44;;;21.33;100.00
75640;BME280;64233;51.486;6.332;2023-07-29T10:56:26;100495.44;;;21.11;100.00
75640;BME280;64233;51.486;6.332;2023-07-29T10:58:51;100492.72;;;21.02;100.00
75640;BME280;64233;51.486;6.332;2023-07-29T11:01:27;100492.03;;;20.84;100.00
75640;BME280;64233;51.486;6.332;2023-07-29T11:12:41;100479.50;;;21.43;100.00
75640;BME280;64233;51.486;6.332;2023-07-29T11:15:13;100479.38;;;22.02;100.00
75640;BME280;64233;51.486;6.332;2023-07-29T11:17:39;100474.88;;;21.86;100.00
75640;BME280;64233;51.486;6.332;2023-07-29T11:20:06;100479.28;;;21.57;100.00
75640;BME280;64233;51.486;6.332;2023-07-29T11:22:33;100479.13;;;21.74;100.00
75640;BME280;64233;51.486;6.332;2023-07-29T11:24:58;100474.00;;;21.73;100.00
75640;BME280;64233;51.486;6.332;2023-07-29T11:27:23;100483.66;;;21.70;100.00
75640;BME280;64233;51.486;6.332;2023-07-29T11:29:49;100488.22;;;21.36;100.00
75640;BME280;64233;51.486;6.332;2023-07-29T11:32:15;100488.16;;;21.24;100.00
75640;BME280;64233;51.486;6.332;2023-07-29T11:34:41;100483.94;;;20.96;100.00
75640;BME280;64233;51.486;6.332;2023-07-29T11:37:09;100483.31;;;20.91;100.00
75640;BME280;64233;51.486;6.332;2023-07-29T11:39:40;100481.56;;;20.86;100.00
75640;BME280;64233;51.486;6.332;2023-07-29T11:42:06;100482.28;;;20.74;100.00
75640;BME280;64233;51.486;6.332;2023-07-29T11:44:31;100497.38;;;20.72;100.00
75640;BME280;64233;51.486;6.332;2023-07-29T11:46:56;100488.66;;;20.87;100.00
75640;BME280;64233;51.486;6.332;2023-07-29T11:49:22;100486.97;;;21.04;100.00
75640;BME280;64233;51.486;6.332;2023-07-29T11:51:47;100480.56;;;21.00;100.00
75640;BME280;64233;51.486;6.332;2023-07-29T11:54:12;100481.50;;;21.04;100.00
75640;BME280;64233;51.486;6.332;2023-07-29T11:56:37;100472.28;;;21.17;100.00
75640;BME280;64233;51.486;6.332;2023-07-29T11:59:03;100474.03;;;21.43;100.00
75640;BME280;64233;51.486;6.332;2023-07-29T12:01:28;100472.88;;;21.53;100.00
75640;BME280;64233;51.486;6.332;2023-07-29T12:03:55;100469.06;;;21.45;100.00
75640;BME280;64233;51.486;6.332;2023-07-29T12:06:21;100478.22;;;21.40;100.00
75640;BME280;64233;51.486;6.332;2023-07-29T12:08:47;100467.44;;;21.53;100.00
75640;BME280;64233;51.486;6.332;2023-07-29T12:11:13;100472.38;;;21.59;100.00
75640;BME280;64233;51.486;6.332;2023-07-29T12:13:41;100472.75;;;22.25;100.00
75640;BME280;64233;51.486;6.332;2023-07-29T12:16:06;100464.44;;;22.00;100.00
75640;BME280;64233;51.486;6.332;2023-07-29T12:18:33;100462.19;;;22.02;100.00
75640;BME280;64233;51.486;6.332;2023-07-29T12:20:59;100467.31;;;22.04;100.00
75640;BME280;64233;51.486;6.332;2023-07-29T12:23:25;100467.13;;;22.09;100.00
75640;BME280;64233;51.486;6.332;2023-07-29T12:26:00;100472.94;;;22.07;100.00
75640;BME280;64233;51.486;6.332;2023-07-29T12:28:26;100465.38;;;21.71;100.00
75640;BME280;64233;51.486;6.332;2023-07-29T12:30:57;100460.97;;;21.57;100.00
75640;BME280;64233;51.486;6.332;2023-07-29T12:33:36;100463.94;;;21.86;100.00
75640;BME280;64233;51.486;6.332;2023-07-29T12:36:04;100466.97;;;22.05;100.00
75640;BME280;64233;51.486;6.332;2023-07-29T12:38:29;100456.41;;;22.04;100.00
75640;BME280;64233;51.486;6.332;2023-07-29T12:40:55;100450.25;;;22.07;100.00
75640;BME280;64233;51.486;6.332;2023-07-29T12:43:21;100450.41;;;22.23;100.00
75640;BME280;64233;51.486;6.332;2023-07-29T12:45:46;100454.34;;;22.00;100.00
75640;BME280;64233;51.486;6.332;2023-07-29T12:48:12;100457.22;;;21.83;100.00
75640;BME280;64233;51.486;6.332;2023-07-29T12:50:38;100453.25;;;21.59;100.00
75640;BME280;64233;51.486;6.332;2023-07-29T12:53:05;100445.25;;;21.75;100.00